sensor_id;sensor_type;location;lat;lon;timestamp;P1;durP1;ratioP1;P2;durP2;ratioP2
55672;SDS011;41554;45.366;20.400;2022-07-22T00:01:37;8.68;;;5.65;;
55672;SDS011;41554;45.366;20.400;2022-07-22T00:04:03;10.35;;;7.28;;
55672;SDS011;41554;45.366;20.400;2022-07-22T00:06:29;9.38;;;5.72;;
55672;SDS011;41554;45.366;20.400;2022-07-22T00:08:55;6.90;;;5.13;;
55672;SDS011;41554;45.366;20.400;2022-07-22T00:11:22;9.48;;;6.43;;
55672;SDS011;41554;45.366;20.400;2022-07-22T00:13:48;8.77;;;6.13;;
55672;SDS011;41554;45.366;20.400;2022-07-22T00:16:15;8.88;;;6.38;;
55672;SDS011;41554;45.366;20.400;2022-07-22T00:18:41;7.80;;;5.70;;
55672;SDS011;41554;45.366;20.400;2022-07-22T00:21:07;11.25;;;6.22;;
55672;SDS011;41554;45.366;20.400;2022-07-22T00:23:33;10.32;;;5.20;;
55672;SDS011;41554;45.366;20.400;2022-07-22T00:25:59;6.07;;;4.95;;
55672;SDS011;41554;45.366;20.400;2022-07-22T00:28:25;16.02;;;5.60;;
55672;SDS011;41554;45.366;20.400;2022-07-22T00:30:51;9.10;;;5.50;;
55672;SDS011;41554;45.366;20.400;2022-07-22T00:33:17;8.30;;;6.53;;
55672;SDS011;41554;45.366;20.400;2022-07-22T00:35:44;11.60;;;6.15;;
55672;SDS011;41554;45.366;20.400;2022-07-22T00:38:10;18.02;;;6.65;;
55672;SDS011;41554;45.366;20.400;2022-07-22T00:40:36;10.95;;;7.57;;
55672;SDS011;41554;45.366;20.400;2022-07-22T00:43:02;20.50;;;7.15;;
55672;SDS011;41554;45.366;20.400;2022-07-22T00:45:28;9.88;;;5.85;;
55672;SDS011;41554;45.366;20.400;2022-07-22T00:47:54;17.30;;;6.43;;
55672;SDS011;41554;45.366;20.400;2022-07-22T00:50:20;14.00;;;7.40;;
55672;SDS011;41554;45.366;20.400;2022-07-22T00:52:48;13.52;;;8.32;;
55672;SDS011;41554;45.366;20.400;2022-07-22T00:55:15;7.82;;;5.95;;
55672;SDS011;41554;45.366;20.400;2022-07-22T00:57:41;14.65;;;6.53;;
55672;SDS011;41554;45.366;20.400;2022-07-22T01:00:09;9.60;;;5.75;;
55672;SDS011;41554;45.366;20.400;2022-07-22T01:02:36;10.35;;;7.38;;
55672;SDS011;41554;45.366;20.400;2022-07-22T01:05:02;11.38;;;6.10;;
55672;SDS011;41554;45.366;20.400;2022-07-22T01:07:28;11.55;;;7.30;;
55672;SDS011;41554;45.366;20.400;2022-07-22T01:09:54;8.88;;;6.20;;
55672;SDS011;41554;45.366;20.400;2022-07-22T01:12:21;7.07;;;5.47;;
55672;SDS011;41554;45.366;20.400;2022-07-22T01:14:47;7.63;;;6.03;;
55672;SDS011;41554;45.366;20.400;2022-07-22T01:17:13;15.73;;;7.30;;
55672;SDS011;41554;45.366;20.400;2022-07-22T01:19:39;9.43;;;7.32;;
55672;SDS011;41554;45.366;20.400;2022-07-22T01:22:06;10.70;;;7.60;;
55672;SDS011;41554;45.366;20.400;2022-07-22T01:24:32;12.88;;;9.35;;
55672;SDS011;41554;45.366;20.400;2022-07-22T01:26:59;12.05;;;7.43;;
55672;SDS011;41554;45.366;20.400;2022-07-22T01:29:25;9.02;;;6.45;;
55672;SDS011;41554;45.366;20.400;2022-07-22T01:31:51;13.68;;;7.43;;
55672;SDS011;41554;45.366;20.400;2022-07-22T01:34:17;10.05;;;7.00;;
55672;SDS011;41554;45.366;20.400;2022-07-22T01:36:44;20.48;;;7.53;;
55672;SDS011;41554;45.366;20.400;2022-07-22T01:39:10;10.80;;;7.70;;
55672;SDS011;41554;45.366;20.400;2022-07-22T01:41:37;13.13;;;7.28;;
55672;SDS011;41554;45.366;20.400;2022-07-22T01:44:03;12.65;;;7.25;;
55672;SDS011;41554;45.366;20.400;2022-07-22T01:46:29;12.27;;;7.68;;
55672;SDS011;41554;45.366;20.400;2022-07-22T01:48:55;14.98;;;6.53;;
55672;SDS011;41554;45.366;20.400;2022-07-22T01:51:21;15.40;;;7.78;;
55672;SDS011;41554;45.366;20.400;2022-07-22T01:53:47;12.90;;;6.35;;
55672;SDS011;41554;45.366;20.400;2022-07-22T01:56:14;14.30;;;6.53;;
55672;SDS011;41554;45.366;20.400;2022-07-22T01:58:40;10.60;;;6.50;;
55672;SDS011;41554;45.366;20.400;2022-07-22T02:01:07;8.82;;;6.60;;
55672;SDS011;41554;45.366;20.400;2022-07-22T02:03:33;8.63;;;5.75;;
55672;SDS011;41554;45.366;20.400;2022-07-22T02:05:59;9.80;;;6.28;;
55672;SDS011;41554;45.366;20.400;2022-07-22T02:08:25;10.48;;;6.30;;
55672;SDS011;41554;45.366;20.400;2022-07-22T02:10:52;8.60;;;5.03;;
55672;SDS011;41554;45.366;20.400;2022-07-22T02:13:18;8.35;;;5.65;;
55672;SDS011;41554;45.366;20.400;2022-07-22T02:15:44;8.90;;;6.60;;
55672;SDS011;41554;45.366;20.400;2022-07-22T02:18:11;10.35;;;5.80;;
55672;SDS011;41554;45.366;20.400;2022-07-22T02:20:37;8.13;;;4.82;;
55672;SDS011;41554;45.366;20.400;2022-07-22T02:23:03;8.68;;;5.30;;
55672;SDS011;41554;45.366;20.400;2022-07-22T02:25:29;7.72;;;4.72;;
55672;SDS011;41554;45.366;20.400;2022-07-22T02:27:55;8.27;;;4.25;;
55672;SDS011;41554;45.366;20.400;2022-07-22T02:30:22;16.30;;;5.28;;
55672;SDS011;41554;45.366;20.400;2022-07-22T02:32:48;5.95;;;4.65;;
55672;SDS011;41554;45.366;20.400;2022-07-22T02:35:14;8.57;;;5.40;;
55672;SDS011;41554;45.366;20.400;2022-07-22T02:37:40;6.03;;;5.43;;
55672;SDS011;41554;45.366;20.400;2022-07-22T02:40:06;9.48;;;4.82;;
55672;SDS011;41554;45.366;20.400;2022-07-22T02:42:33;8.23;;;5.18;;
55672;SDS011;41554;45.366;20.400;2022-07-22T02:44:59;6.13;;;5.10;;
55672;SDS011;41554;45.366;20.400;2022-07-22T02:47:26;7.85;;;5.13;;
55672;SDS011;41554;45.366;20.400;2022-07-22T02:49:52;13.40;;;5.20;;
55672;SDS011;41554;45.366;20.400;2022-07-22T02:52:18;15.20;;;5.05;;
55672;SDS011;41554;45.366;20.400;2022-07-22T02:54:44;9.48;;;5.93;;
55672;SDS011;41554;45.366;20.400;2022-07-22T02:57:10;6.10;;;4.45;;
55672;SDS011;41554;45.366;20.400;2022-07-22T02:59:36;11.38;;;5.68;;
55672;SDS011;41554;45.366;20.400;2022-07-22T03:02:02;7.75;;;5.28;;
55672;SDS011;41554;45.366;20.400;2022-07-22T03:04:29;5.60;;;4.57;;
55672;SDS011;41554;45.366;20.400;2022-07-22T03:06:55;8.38;;;5.25;;
55672;SDS011;41554;45.366;20.400;2022-07-22T03:09:21;14.57;;;4.85;;
55672;SDS011;41554;45.366;20.400;2022-07-22T03:11:47;12.27;;;6.07;;
55672;SDS011;41554;45.366;20.400;2022-07-22T03:14:13;8.27;;;4.97;;
55672;SDS011;41554;45.366;20.400;2022-07-22T03:16:41;7.82;;;4.45;;
55672;SDS011;41554;45.366;20.400;2022-07-22T03:19:07;5.07;;;3.95;;
55672;SDS011;41554;45.366;20.400;2022-07-22T03:21:33;11.85;;;5.72;;
55672;SDS011;41554;45.366;20.400;2022-07-22T03:23:59;11.80;;;6.57;;
55672;SDS011;41554;45.366;20.400;2022-07-22T03:26:25;9.35;;;5.28;;
55672;SDS011;41554;45.366;20.400;2022-07-22T03:28:51;16.00;;;5.93;;
55672;SDS011;41554;45.366;20.400;2022-07-22T03:31:18;12.00;;;4.88;;
55672;SDS011;41554;45.366;20.400;2022-07-22T03:33:44;25.33;;;7.28;;
55672;SDS011;41554;45.366;20.400;2022-07-22T03:36:10;10.30;;;5.80;;
55672;SDS011;41554;45.366;20.400;2022-07-22T03:38:37;6.50;;;4.72;;
55672;SDS011;41554;45.366;20.400;2022-07-22T03:41:03;8.57;;;5.43;;
55672;SDS011;41554;45.366;20.400;2022-07-22T03:43:30;7.50;;;4.97;;
55672;SDS011;41554;45.366;20.400;2022-07-22T03:45:56;18.20;;;6.55;;
55672;SDS011;41554;45.366;20.400;2022-07-22T03:48:22;9.85;;;4.97;;
55672;SDS011;41554;45.366;20.400;2022-07-22T03:50:48;8.00;;;5.40;;
55672;SDS011;41554;45.366;20.400;2022-07-22T03:53:16;7.90;;;5.05;;
55672;SDS011;41554;45.366;20.400;2022-07-22T03:55:42;9.35;;;4.80;;
55672;SDS011;41554;45.366;20.400;2022-07-22T03:58:08;9.27;;;6.38;;
55672;SDS011;41554;45.366;20.400;2022-07-22T04:00:34;8.52;;;5.32;;
55672;SDS011;41554;45.366;20.400;2022-07-22T04:03:00;8.40;;;5.55;;
55672;SDS011;41554;45.366;20.400;2022-07-22T04:05:26;6.63;;;5.00;;
55672;SDS011;41554;45.366;20.400;2022-07-22T04:07:52;6.97;;;4.97;;
55672;SDS011;41554;45.366;20.400;2022-07-22T04:10:19;7.18;;;5.18;;
55672;SDS011;41554;45.366;20.400;2022-07-22T04:12:45;7.00;;;4.68;;
55672;SDS011;41554;45.366;20.400;2022-07-22T04:15:11;12.18;;;5.78;;
55672;SDS011;41554;45.366;20.400;2022-07-22T04:17:38;6.80;;;5.53;;
55672;SDS011;41554;45.366;20.400;2022-07-22T04:20:04;6.63;;;4.10;;
55672;SDS011;41554;45.366;20.400;2022-07-22T04:22:31;7.70;;;4.57;;
55672;SDS011;41554;45.366;20.400;2022-07-22T04:24:57;13.23;;;5.80;;
55672;SDS011;41554;45.366;20.400;2022-07-22T04:27:23;12.02;;;6.13;;
55672;SDS011;41554;45.366;20.400;2022-07-22T04:29:49;5.57;;;4.22;;
55672;SDS011;41554;45.366;20.400;2022-07-22T04:32:15;8.32;;;5.15;;
55672;SDS011;41554;45.366;20.400;2022-07-22T04:34:41;14.40;;;5.53;;
55672;SDS011;41554;45.366;20.400;2022-07-22T04:37:08;15.38;;;4.82;;
55672;SDS011;41554;45.366;20.400;2022-07-22T04:39:34;15.38;;;4.65;;
55672;SDS011;41554;45.366;20.400;2022-07-22T04:42:00;7.55;;;4.85;;
55672;SDS011;41554;45.366;20.400;2022-07-22T04:44:26;11.93;;;5.65;;
55672;SDS011;41554;45.366;20.400;2022-07-22T04:46:53;14.18;;;5.25;;
55672;SDS011;41554;45.366;20.400;2022-07-22T04:49:19;11.75;;;4.78;;
55672;SDS011;41554;45.366;20.400;2022-07-22T04:51:45;8.75;;;4.80;;
55672;SDS011;41554;45.366;20.400;2022-07-22T04:54:11;11.30;;;5.18;;
55672;SDS011;41554;45.366;20.400;2022-07-22T04:56:37;11.57;;;4.60;;
55672;SDS011;41554;45.366;20.400;2022-07-22T04:59:03;8.90;;;5.30;;
55672;SDS011;41554;45.366;20.400;2022-07-22T05:01:29;7.85;;;6.35;;
55672;SDS011;41554;45.366;20.400;2022-07-22T05:03:55;11.80;;;6.95;;
55672;SDS011;41554;45.366;20.400;2022-07-22T05:06:21;8.85;;;5.78;;
55672;SDS011;41554;45.366;20.400;2022-07-22T05:08:48;12.80;;;6.07;;
55672;SDS011;41554;45.366;20.400;2022-07-22T05:11:14;10.73;;;5.18;;
55672;SDS011;41554;45.366;20.400;2022-07-22T05:13:40;11.63;;;5.50;;
55672;SDS011;41554;45.366;20.400;2022-07-22T05:16:06;8.25;;;5.47;;
55672;SDS011;41554;45.366;20.400;2022-07-22T05:18:32;19.48;;;5.95;;
55672;SDS011;41554;45.366;20.400;2022-07-22T05:20:59;11.95;;;6.18;;
55672;SDS011;41554;45.366;20.400;2022-07-22T05:23:25;11.13;;;6.28;;
55672;SDS011;41554;45.366;20.400;2022-07-22T05:25:52;7.43;;;4.63;;
55672;SDS011;41554;45.366;20.400;2022-07-22T05:28:18;7.32;;;4.80;;
55672;SDS011;41554;45.366;20.400;2022-07-22T05:30:44;11.70;;;5.90;;
55672;SDS011;41554;45.366;20.400;2022-07-22T05:33:11;15.45;;;4.45;;
55672;SDS011;41554;45.366;20.400;2022-07-22T05:35:37;20.35;;;6.07;;
55672;SDS011;41554;45.366;20.400;2022-07-22T05:38:03;6.80;;;4.53;;
55672;SDS011;41554;45.366;20.400;2022-07-22T05:40:30;11.05;;;5.38;;
55672;SDS011;41554;45.366;20.400;2022-07-22T05:42:57;13.35;;;5.63;;
55672;SDS011;41554;45.366;20.400;2022-07-22T05:45:23;7.50;;;5.07;;
55672;SDS011;41554;45.366;20.400;2022-07-22T05:47:49;10.07;;;4.65;;
55672;SDS011;41554;45.366;20.400;2022-07-22T05:50:15;14.18;;;4.40;;
55672;SDS011;41554;45.366;20.400;2022-07-22T05:52:42;8.63;;;4.80;;
55672;SDS011;41554;45.366;20.400;2022-07-22T05:55:08;6.30;;;4.78;;
55672;SDS011;41554;45.366;20.400;2022-07-22T05:57:35;9.02;;;4.55;;
55672;SDS011;41554;45.366;20.400;2022-07-22T06:00:02;9.05;;;5.93;;
55672;SDS011;41554;45.366;20.400;2022-07-22T06:02:28;6.10;;;4.15;;
55672;SDS011;41554;45.366;20.400;2022-07-22T06:04:54;6.00;;;4.25;;
55672;SDS011;41554;45.366;20.400;2022-07-22T06:07:20;5.93;;;4.25;;
55672;SDS011;41554;45.366;20.400;2022-07-22T06:09:47;15.10;;;4.72;;
55672;SDS011;41554;45.366;20.400;2022-07-22T06:12:13;12.77;;;5.43;;
55672;SDS011;41554;45.366;20.400;2022-07-22T06:14:39;8.45;;;4.85;;
55672;SDS011;41554;45.366;20.400;2022-07-22T06:17:05;5.28;;;3.65;;
55672;SDS011;41554;45.366;20.400;2022-07-22T06:19:31;5.45;;;4.10;;
55672;SDS011;41554;45.366;20.400;2022-07-22T06:21:57;5.97;;;3.95;;
55672;SDS011;41554;45.366;20.400;2022-07-22T06:24:23;7.65;;;3.88;;
55672;SDS011;41554;45.366;20.400;2022-07-22T06:26:50;8.48;;;4.90;;
55672;SDS011;41554;45.366;20.400;2022-07-22T06:29:16;12.65;;;4.78;;
55672;SDS011;41554;45.366;20.400;2022-07-22T06:31:42;7.88;;;4.65;;
55672;SDS011;41554;45.366;20.400;2022-07-22T06:34:08;9.23;;;3.65;;
55672;SDS011;41554;45.366;20.400;2022-07-22T06:36:34;8.23;;;4.25;;
55672;SDS011;41554;45.366;20.400;2022-07-22T06:39:00;10.40;;;4.90;;
55672;SDS011;41554;45.366;20.400;2022-07-22T06:41:26;12.50;;;4.28;;
55672;SDS011;41554;45.366;20.400;2022-07-22T06:43:52;5.07;;;4.05;;
55672;SDS011;41554;45.366;20.400;2022-07-22T06:46:18;10.70;;;4.82;;
55672;SDS011;41554;45.366;20.400;2022-07-22T06:48:44;6.32;;;4.00;;
55672;SDS011;41554;45.366;20.400;2022-07-22T06:51:10;6.55;;;4.40;;
55672;SDS011;41554;45.366;20.400;2022-07-22T06:53:36;5.95;;;4.10;;
55672;SDS011;41554;45.366;20.400;2022-07-22T06:56:03;6.68;;;4.75;;
55672;SDS011;41554;45.366;20.400;2022-07-22T06:58:29;7.65;;;4.75;;
55672;SDS011;41554;45.366;20.400;2022-07-22T07:00:55;6.95;;;5.00;;
55672;SDS011;41554;45.366;20.400;2022-07-22T07:03:21;17.20;;;4.60;;
55672;SDS011;41554;45.366;20.400;2022-07-22T07:05:50;7.03;;;4.95;;
55672;SDS011;41554;45.366;20.400;2022-07-22T07:08:16;8.43;;;5.20;;
55672;SDS011;41554;45.366;20.400;2022-07-22T07:10:42;9.48;;;4.55;;
55672;SDS011;41554;45.366;20.400;2022-07-22T07:13:08;8.05;;;5.30;;
55672;SDS011;41554;45.366;20.400;2022-07-22T07:15:34;5.32;;;4.10;;
55672;SDS011;41554;45.366;20.400;2022-07-22T07:18:01;9.68;;;4.93;;
55672;SDS011;41554;45.366;20.400;2022-07-22T07:20:27;8.55;;;4.88;;
55672;SDS011;41554;45.366;20.400;2022-07-22T07:22:53;7.65;;;4.93;;
55672;SDS011;41554;45.366;20.400;2022-07-22T07:25:20;8.18;;;4.88;;
55672;SDS011;41554;45.366;20.400;2022-07-22T07:27:47;9.30;;;4.25;;
55672;SDS011;41554;45.366;20.400;2022-07-22T07:30:13;11.35;;;5.20;;
55672;SDS011;41554;45.366;20.400;2022-07-22T07:32:39;16.50;;;5.75;;
55672;SDS011;41554;45.366;20.400;2022-07-22T07:35:05;12.52;;;5.75;;
55672;SDS011;41554;45.366;20.400;2022-07-22T07:37:32;7.50;;;5.03;;
55672;SDS011;41554;45.366;20.400;2022-07-22T07:39:58;8.35;;;5.22;;
55672;SDS011;41554;45.366;20.400;2022-07-22T07:42:25;6.10;;;4.88;;
55672;SDS011;41554;45.366;20.400;2022-07-22T07:44:51;8.18;;;4.85;;
55672;SDS011;41554;45.366;20.400;2022-07-22T07:47:17;7.60;;;4.18;;
55672;SDS011;41554;45.366;20.400;2022-07-22T07:49:46;28.10;;;5.30;;
55672;SDS011;41554;45.366;20.400;2022-07-22T07:52:12;6.28;;;4.72;;
55672;SDS011;41554;45.366;20.400;2022-07-22T07:54:41;6.63;;;4.43;;
55672;SDS011;41554;45.366;20.400;2022-07-22T07:57:08;9.93;;;5.07;;
55672;SDS011;41554;45.366;20.400;2022-07-22T07:59:35;10.15;;;5.00;;
55672;SDS011;41554;45.366;20.400;2022-07-22T08:02:02;4.68;;;3.85;;
55672;SDS011;41554;45.366;20.400;2022-07-22T08:04:28;5.00;;;3.42;;
55672;SDS011;41554;45.366;20.400;2022-07-22T08:06:54;6.38;;;3.70;;
55672;SDS011;41554;45.366;20.400;2022-07-22T08:09:21;5.70;;;4.50;;
55672;SDS011;41554;45.366;20.400;2022-07-22T08:11:47;5.45;;;4.05;;
55672;SDS011;41554;45.366;20.400;2022-07-22T08:14:13;8.05;;;3.72;;
55672;SDS011;41554;45.366;20.400;2022-07-22T08:16:39;12.75;;;4.53;;
55672;SDS011;41554;45.366;20.400;2022-07-22T08:19:05;6.57;;;4.47;;
55672;SDS011;41554;45.366;20.400;2022-07-22T08:21:31;8.60;;;3.70;;
55672;SDS011;41554;45.366;20.400;2022-07-22T08:23:57;7.90;;;3.88;;
55672;SDS011;41554;45.366;20.400;2022-07-22T08:26:24;10.63;;;3.95;;
55672;SDS011;41554;45.366;20.400;2022-07-22T08:28:50;6.65;;;3.78;;
55672;SDS011;41554;45.366;20.400;2022-07-22T08:31:16;7.03;;;3.85;;
55672;SDS011;41554;45.366;20.400;2022-07-22T08:33:42;16.58;;;4.32;;
55672;SDS011;41554;45.366;20.400;2022-07-22T08:36:08;4.20;;;3.30;;
55672;SDS011;41554;45.366;20.400;2022-07-22T08:38:34;8.52;;;3.33;;
55672;SDS011;41554;45.366;20.400;2022-07-22T08:41:01;4.35;;;3.15;;
55672;SDS011;41554;45.366;20.400;2022-07-22T08:43:28;6.55;;;3.25;;
55672;SDS011;41554;45.366;20.400;2022-07-22T08:45:55;4.35;;;2.90;;
55672;SDS011;41554;45.366;20.400;2022-07-22T08:48:21;9.85;;;3.33;;
55672;SDS011;41554;45.366;20.400;2022-07-22T08:50:48;5.25;;;3.28;;
55672;SDS011;41554;45.366;20.400;2022-07-22T08:53:14;4.57;;;3.20;;
55672;SDS011;41554;45.366;20.400;2022-07-22T08:55:41;10.25;;;4.60;;
55672;SDS011;41554;45.366;20.400;2022-07-22T08:58:11;4.90;;;2.70;;
55672;SDS011;41554;45.366;20.400;2022-07-22T09:00:38;16.88;;;4.20;;
55672;SDS011;41554;45.366;20.400;2022-07-22T09:03:23;4.03;;;2.65;;
55672;SDS011;41554;45.366;20.400;2022-07-22T09:05:52;5.25;;;3.85;;
55672;SDS011;41554;45.366;20.400;2022-07-22T09:08:19;4.28;;;2.60;;
55672;SDS011;41554;45.366;20.400;2022-07-22T09:10:46;4.28;;;3.13;;
55672;SDS011;41554;45.366;20.400;2022-07-22T09:13:13;4.10;;;3.70;;
55672;SDS011;41554;45.366;20.400;2022-07-22T09:15:47;5.68;;;3.60;;
55672;SDS011;41554;45.366;20.400;2022-07-22T09:18:15;5.60;;;3.67;;
55672;SDS011;41554;45.366;20.400;2022-07-22T09:20:41;4.88;;;3.38;;
55672;SDS011;41554;45.366;20.400;2022-07-22T09:23:13;3.40;;;2.92;;
55672;SDS011;41554;45.366;20.400;2022-07-22T09:25:42;5.07;;;3.22;;
55672;SDS011;41554;45.366;20.400;2022-07-22T09:30:40;7.43;;;3.65;;
55672;SDS011;41554;45.366;20.400;2022-07-22T09:33:14;4.13;;;2.97;;
55672;SDS011;41554;45.366;20.400;2022-07-22T09:35:41;3.15;;;2.40;;
55672;SDS011;41554;45.366;20.400;2022-07-22T09:38:11;4.40;;;3.08;;
55672;SDS011;41554;45.366;20.400;2022-07-22T09:40:39;6.32;;;4.40;;
55672;SDS011;41554;45.366;20.400;2022-07-22T09:43:06;4.70;;;3.05;;
55672;SDS011;41554;45.366;20.400;2022-07-22T09:45:36;6.22;;;3.67;;
55672;SDS011;41554;45.366;20.400;2022-07-22T09:48:09;4.43;;;3.17;;
55672;SDS011;41554;45.366;20.400;2022-07-22T09:50:35;5.35;;;3.10;;
55672;SDS011;41554;45.366;20.400;2022-07-22T09:53:01;8.15;;;2.80;;
55672;SDS011;41554;45.366;20.400;2022-07-22T09:55:28;9.35;;;3.40;;
55672;SDS011;41554;45.366;20.400;2022-07-22T09:57:55;10.30;;;3.08;;
55672;SDS011;41554;45.366;20.400;2022-07-22T10:00:22;4.30;;;2.92;;
55672;SDS011;41554;45.366;20.400;2022-07-22T10:05:20;7.10;;;3.45;;
55672;SDS011;41554;45.366;20.400;2022-07-22T10:07:46;4.53;;;3.10;;
55672;SDS011;41554;45.366;20.400;2022-07-22T10:10:13;4.13;;;2.95;;
55672;SDS011;41554;45.366;20.400;2022-07-22T10:12:40;10.85;;;3.20;;
55672;SDS011;41554;45.366;20.400;2022-07-22T10:15:07;4.30;;;3.40;;
55672;SDS011;41554;45.366;20.400;2022-07-22T10:20:01;5.97;;;3.53;;
55672;SDS011;41554;45.366;20.400;2022-07-22T10:25:10;3.20;;;2.40;;
55672;SDS011;41554;45.366;20.400;2022-07-22T10:27:50;5.00;;;3.38;;
55672;SDS011;41554;45.366;20.400;2022-07-22T10:30:19;5.35;;;2.45;;
55672;SDS011;41554;45.366;20.400;2022-07-22T10:32:45;3.97;;;2.92;;
55672;SDS011;41554;45.366;20.400;2022-07-22T10:35:27;13.63;;;4.38;;
55672;SDS011;41554;45.366;20.400;2022-07-22T10:37:54;4.72;;;2.65;;
55672;SDS011;41554;45.366;20.400;2022-07-22T10:40:23;8.60;;;3.78;;
55672;SDS011;41554;45.366;20.400;2022-07-22T10:45:25;13.88;;;3.35;;
55672;SDS011;41554;45.366;20.400;2022-07-22T10:47:52;10.65;;;3.67;;
55672;SDS011;41554;45.366;20.400;2022-07-22T10:55:32;4.97;;;3.55;;
55672;SDS011;41554;45.366;20.400;2022-07-22T10:57:58;4.00;;;3.10;;
55672;SDS011;41554;45.366;20.400;2022-07-22T11:00:24;5.43;;;3.38;;
55672;SDS011;41554;45.366;20.400;2022-07-22T11:02:50;5.32;;;2.63;;
55672;SDS011;41554;45.366;20.400;2022-07-22T11:05:26;4.93;;;3.58;;
55672;SDS011;41554;45.366;20.400;2022-07-22T11:07:52;6.85;;;3.40;;
55672;SDS011;41554;45.366;20.400;2022-07-22T11:10:19;4.35;;;3.20;;
55672;SDS011;41554;45.366;20.400;2022-07-22T11:12:46;4.75;;;3.05;;
55672;SDS011;41554;45.366;20.400;2022-07-22T11:15:13;4.28;;;3.58;;
55672;SDS011;41554;45.366;20.400;2022-07-22T11:17:40;5.40;;;3.17;;
55672;SDS011;41554;45.366;20.400;2022-07-22T11:20:07;3.88;;;2.80;;
55672;SDS011;41554;45.366;20.400;2022-07-22T11:22:34;5.65;;;4.18;;
55672;SDS011;41554;45.366;20.400;2022-07-22T11:25:05;4.70;;;2.95;;
55672;SDS011;41554;45.366;20.400;2022-07-22T11:27:33;4.78;;;3.40;;
55672;SDS011;41554;45.366;20.400;2022-07-22T11:29:59;3.65;;;3.20;;
55672;SDS011;41554;45.366;20.400;2022-07-22T11:32:25;6.28;;;2.95;;
55672;SDS011;41554;45.366;20.400;2022-07-22T11:34:56;8.27;;;4.25;;
55672;SDS011;41554;45.366;20.400;2022-07-22T11:37:24;4.78;;;3.08;;
55672;SDS011;41554;45.366;20.400;2022-07-22T11:39:51;4.57;;;2.95;;
55672;SDS011;41554;45.366;20.400;2022-07-22T11:42:24;5.20;;;3.67;;
55672;SDS011;41554;45.366;20.400;2022-07-22T11:44:50;5.63;;;3.08;;
55672;SDS011;41554;45.366;20.400;2022-07-22T11:47:16;3.92;;;3.08;;
55672;SDS011;41554;45.366;20.400;2022-07-22T11:49:44;8.07;;;5.72;;
55672;SDS011;41554;45.366;20.400;2022-07-22T11:52:12;23.77;;;16.50;;
55672;SDS011;41554;45.366;20.400;2022-07-22T11:54:39;34.88;;;14.02;;
55672;SDS011;41554;45.366;20.400;2022-07-22T11:57:06;20.70;;;12.05;;
55672;SDS011;41554;45.366;20.400;2022-07-22T11:59:32;7.60;;;4.53;;
55672;SDS011;41554;45.366;20.400;2022-07-22T12:02:00;7.25;;;3.65;;
55672;SDS011;41554;45.366;20.400;2022-07-22T12:04:26;5.50;;;4.00;;
55672;SDS011;41554;45.366;20.400;2022-07-22T12:06:53;4.57;;;3.60;;
55672;SDS011;41554;45.366;20.400;2022-07-22T12:09:23;4.60;;;3.30;;
55672;SDS011;41554;45.366;20.400;2022-07-22T12:11:57;6.22;;;3.03;;
55672;SDS011;41554;45.366;20.400;2022-07-22T12:14:30;8.05;;;5.07;;
55672;SDS011;41554;45.366;20.400;2022-07-22T12:19:26;3.88;;;3.22;;
55672;SDS011;41554;45.366;20.400;2022-07-22T12:22:05;7.32;;;5.15;;
55672;SDS011;41554;45.366;20.400;2022-07-22T12:24:37;7.22;;;4.63;;
55672;SDS011;41554;45.366;20.400;2022-07-22T12:27:05;4.38;;;3.80;;
55672;SDS011;41554;45.366;20.400;2022-07-22T12:32:04;5.88;;;4.25;;
55672;SDS011;41554;45.366;20.400;2022-07-22T12:37:22;5.53;;;3.60;;
55672;SDS011;41554;45.366;20.400;2022-07-22T12:42:38;9.68;;;4.28;;
55672;SDS011;41554;45.366;20.400;2022-07-22T12:45:07;6.65;;;3.47;;
55672;SDS011;41554;45.366;20.400;2022-07-22T12:52:41;5.55;;;4.50;;
55672;SDS011;41554;45.366;20.400;2022-07-22T12:55:08;6.78;;;4.40;;
55672;SDS011;41554;45.366;20.400;2022-07-22T12:57:33;4.82;;;3.63;;
55672;SDS011;41554;45.366;20.400;2022-07-22T12:59:59;8.15;;;4.47;;
55672;SDS011;41554;45.366;20.400;2022-07-22T13:02:25;5.47;;;3.33;;
55672;SDS011;41554;45.366;20.400;2022-07-22T13:04:50;4.05;;;3.30;;
55672;SDS011;41554;45.366;20.400;2022-07-22T13:07:16;6.03;;;4.18;;
55672;SDS011;41554;45.366;20.400;2022-07-22T13:09:42;4.75;;;3.40;;
55672;SDS011;41554;45.366;20.400;2022-07-22T13:12:08;4.30;;;3.33;;
55672;SDS011;41554;45.366;20.400;2022-07-22T13:14:33;5.53;;;4.25;;
55672;SDS011;41554;45.366;20.400;2022-07-22T13:16:59;7.22;;;3.55;;
55672;SDS011;41554;45.366;20.400;2022-07-22T13:19:25;6.32;;;4.05;;
55672;SDS011;41554;45.366;20.400;2022-07-22T13:21:51;4.25;;;3.03;;
55672;SDS011;41554;45.366;20.400;2022-07-22T13:24:16;3.95;;;3.28;;
55672;SDS011;41554;45.366;20.400;2022-07-22T13:26:42;4.90;;;3.88;;
55672;SDS011;41554;45.366;20.400;2022-07-22T13:29:08;5.82;;;3.45;;
55672;SDS011;41554;45.366;20.400;2022-07-22T13:31:34;7.10;;;4.35;;
55672;SDS011;41554;45.366;20.400;2022-07-22T13:34:00;4.13;;;3.03;;
55672;SDS011;41554;45.366;20.400;2022-07-22T13:36:26;3.95;;;3.00;;
55672;SDS011;41554;45.366;20.400;2022-07-22T13:38:53;5.82;;;3.80;;
55672;SDS011;41554;45.366;20.400;2022-07-22T13:41:19;5.78;;;3.92;;
55672;SDS011;41554;45.366;20.400;2022-07-22T13:43:45;3.97;;;3.08;;
55672;SDS011;41554;45.366;20.400;2022-07-22T13:46:11;4.85;;;3.67;;
55672;SDS011;41554;45.366;20.400;2022-07-22T13:48:37;5.18;;;4.10;;
55672;SDS011;41554;45.366;20.400;2022-07-22T13:51:03;7.22;;;4.60;;
55672;SDS011;41554;45.366;20.400;2022-07-22T13:53:30;6.55;;;4.20;;
55672;SDS011;41554;45.366;20.400;2022-07-22T13:55:55;5.95;;;3.78;;
55672;SDS011;41554;45.366;20.400;2022-07-22T13:58:21;4.93;;;3.30;;
55672;SDS011;41554;45.366;20.400;2022-07-22T14:00:47;11.18;;;4.13;;
55672;SDS011;41554;45.366;20.400;2022-07-22T14:03:13;6.38;;;4.32;;
55672;SDS011;41554;45.366;20.400;2022-07-22T14:05:39;9.43;;;3.47;;
55672;SDS011;41554;45.366;20.400;2022-07-22T14:08:04;8.80;;;4.45;;
55672;SDS011;41554;45.366;20.400;2022-07-22T14:10:30;6.90;;;3.78;;
55672;SDS011;41554;45.366;20.400;2022-07-22T14:12:56;4.40;;;3.72;;
55672;SDS011;41554;45.366;20.400;2022-07-22T14:15:22;4.25;;;3.40;;
55672;SDS011;41554;45.366;20.400;2022-07-22T14:17:47;7.85;;;4.25;;
55672;SDS011;41554;45.366;20.400;2022-07-22T14:20:13;8.95;;;3.97;;
55672;SDS011;41554;45.366;20.400;2022-07-22T14:22:39;9.57;;;4.28;;
55672;SDS011;41554;45.366;20.400;2022-07-22T14:25:05;4.90;;;4.13;;
55672;SDS011;41554;45.366;20.400;2022-07-22T14:27:30;8.82;;;4.60;;
55672;SDS011;41554;45.366;20.400;2022-07-22T14:29:56;7.25;;;4.10;;
55672;SDS011;41554;45.366;20.400;2022-07-22T14:32:22;5.40;;;4.05;;
55672;SDS011;41554;45.366;20.400;2022-07-22T14:34:48;6.15;;;4.30;;
55672;SDS011;41554;45.366;20.400;2022-07-22T14:37:13;7.22;;;4.30;;
55672;SDS011;41554;45.366;20.400;2022-07-22T14:39:39;6.82;;;4.05;;
55672;SDS011;41554;45.366;20.400;2022-07-22T14:42:05;5.63;;;4.03;;
55672;SDS011;41554;45.366;20.400;2022-07-22T14:44:31;7.43;;;3.78;;
55672;SDS011;41554;45.366;20.400;2022-07-22T14:46:56;8.45;;;3.92;;
55672;SDS011;41554;45.366;20.400;2022-07-22T14:49:22;7.78;;;4.65;;
55672;SDS011;41554;45.366;20.400;2022-07-22T14:51:48;13.00;;;5.18;;
55672;SDS011;41554;45.366;20.400;2022-07-22T14:54:14;10.57;;;5.72;;
55672;SDS011;41554;45.366;20.400;2022-07-22T14:56:39;8.68;;;4.72;;
55672;SDS011;41554;45.366;20.400;2022-07-22T14:59:05;9.32;;;4.07;;
55672;SDS011;41554;45.366;20.400;2022-07-22T15:01:32;13.98;;;4.57;;